sensor_id;sensor_type;location;lat;lon;timestamp;P1;durP1;ratioP1;P2;durP2;ratioP2
27925;SDS011;15267;47.838;12.128;2023-02-28T00:02:15;16.95;;;8.75;;
27925;SDS011;15267;47.838;12.128;2023-02-28T00:04:42;15.45;;;8.55;;
27925;SDS011;15267;47.838;12.128;2023-02-28T00:07:09;12.05;;;7.32;;
27925;SDS011;15267;47.838;12.128;2023-02-28T00:09:35;8.65;;;6.20;;
27925;SDS011;15267;47.838;12.128;2023-02-28T00:12:01;8.38;;;6.47;;
27925;SDS011;15267;47.838;12.128;2023-02-28T00:14:35;11.07;;;6.75;;
27925;SDS011;15267;47.838;12.128;2023-02-28T00:17:01;7.22;;;5.93;;
27925;SDS011;15267;47.838;12.128;2023-02-28T00:19:27;10.82;;;6.50;;
27925;SDS011;15267;47.838;12.128;2023-02-28T00:21:53;7.78;;;6.00;;
27925;SDS011;15267;47.838;12.128;2023-02-28T00:24:19;7.40;;;5.47;;
27925;SDS011;15267;47.838;12.128;2023-02-28T00:26:45;7.13;;;5.18;;
27925;SDS011;15267;47.838;12.128;2023-02-28T00:29:11;6.68;;;5.68;;
27925;SDS011;15267;47.838;12.128;2023-02-28T00:31:37;7.00;;;5.53;;
27925;SDS011;15267;47.838;12.128;2023-02-28T00:34:03;6.95;;;5.10;;
27925;SDS011;15267;47.838;12.128;2023-02-28T00:36:29;9.30;;;5.43;;
27925;SDS011;15267;47.838;12.128;2023-02-28T00:38:55;7.97;;;5.40;;
27925;SDS011;15267;47.838;12.128;2023-02-28T00:41:21;6.68;;;4.88;;
27925;SDS011;15267;47.838;12.128;2023-02-28T00:43:47;5.88;;;4.90;;
27925;SDS011;15267;47.838;12.128;2023-02-28T00:46:13;6.50;;;5.07;;
27925;SDS011;15267;47.838;12.128;2023-02-28T00:48:39;6.60;;;4.90;;
27925;SDS011;15267;47.838;12.128;2023-02-28T00:51:05;6.35;;;5.00;;
27925;SDS011;15267;47.838;12.128;2023-02-28T00:53:31;6.65;;;5.25;;
27925;SDS011;15267;47.838;12.128;2023-02-28T00:56:00;7.00;;;4.93;;
27925;SDS011;15267;47.838;12.128;2023-02-28T00:58:26;6.13;;;5.32;;
27925;SDS011;15267;47.838;12.128;2023-02-28T01:00:52;7.32;;;5.22;;
27925;SDS011;15267;47.838;12.128;2023-02-28T01:03:19;5.80;;;5.15;;
27925;SDS011;15267;47.838;12.128;2023-02-28T01:05:45;6.22;;;5.25;;
27925;SDS011;15267;47.838;12.128;2023-02-28T01:08:11;8.15;;;5.50;;
27925;SDS011;15267;47.838;12.128;2023-02-28T01:10:38;7.55;;;5.63;;
27925;SDS011;15267;47.838;12.128;2023-02-28T01:13:04;8.15;;;6.00;;
27925;SDS011;15267;47.838;12.128;2023-02-28T01:15:30;6.80;;;5.82;;
27925;SDS011;15267;47.838;12.128;2023-02-28T01:17:59;7.07;;;5.68;;
27925;SDS011;15267;47.838;12.128;2023-02-28T01:20:25;8.00;;;5.65;;
27925;SDS011;15267;47.838;12.128;2023-02-28T01:22:51;8.88;;;5.97;;
27925;SDS011;15267;47.838;12.128;2023-02-28T01:25:17;6.32;;;5.43;;
27925;SDS011;15267;47.838;12.128;2023-02-28T01:27:43;7.60;;;5.90;;
27925;SDS011;15267;47.838;12.128;2023-02-28T01:30:10;10.35;;;5.68;;
27925;SDS011;15267;47.838;12.128;2023-02-28T01:32:36;7.38;;;5.60;;
27925;SDS011;15267;47.838;12.128;2023-02-28T01:35:02;7.13;;;5.60;;
27925;SDS011;15267;47.838;12.128;2023-02-28T01:37:28;6.93;;;5.50;;
27925;SDS011;15267;47.838;12.128;2023-02-28T01:39:54;10.68;;;6.15;;
27925;SDS011;15267;47.838;12.128;2023-02-28T01:42:20;7.45;;;5.55;;
27925;SDS011;15267;47.838;12.128;2023-02-28T01:47:21;9.43;;;5.78;;
27925;SDS011;15267;47.838;12.128;2023-02-28T01:49:48;7.32;;;5.90;;
27925;SDS011;15267;47.838;12.128;2023-02-28T01:52:14;7.63;;;5.22;;
27925;SDS011;15267;47.838;12.128;2023-02-28T01:54:43;8.98;;;6.20;;
27925;SDS011;15267;47.838;12.128;2023-02-28T01:57:12;7.95;;;5.85;;
27925;SDS011;15267;47.838;12.128;2023-02-28T01:59:41;7.32;;;5.90;;
27925;SDS011;15267;47.838;12.128;2023-02-28T02:02:14;11.98;;;6.10;;
27925;SDS011;15267;47.838;12.128;2023-02-28T02:04:43;9.35;;;6.00;;
27925;SDS011;15267;47.838;12.128;2023-02-28T02:07:12;10.23;;;6.05;;
27925;SDS011;15267;47.838;12.128;2023-02-28T02:09:38;11.80;;;5.68;;
27925;SDS011;15267;47.838;12.128;2023-02-28T02:12:07;6.88;;;5.60;;
27925;SDS011;15267;47.838;12.128;2023-02-28T02:14:44;6.40;;;5.35;;
27925;SDS011;15267;47.838;12.128;2023-02-28T02:17:34;8.27;;;5.55;;
27925;SDS011;15267;47.838;12.128;2023-02-28T02:33:02;7.95;;;6.13;;
27925;SDS011;15267;47.838;12.128;2023-02-28T02:38:18;8.80;;;6.13;;
27925;SDS011;15267;47.838;12.128;2023-02-28T02:43:19;7.20;;;5.43;;
27925;SDS011;15267;47.838;12.128;2023-02-28T02:45:47;9.15;;;6.13;;
27925;SDS011;15267;47.838;12.128;2023-02-28T02:48:16;7.47;;;6.20;;
27925;SDS011;15267;47.838;12.128;2023-02-28T02:50:43;8.60;;;6.38;;
27925;SDS011;15267;47.838;12.128;2023-02-28T02:53:10;11.70;;;6.63;;
27925;SDS011;15267;47.838;12.128;2023-02-28T02:55:38;7.57;;;6.57;;
27925;SDS011;15267;47.838;12.128;2023-02-28T02:58:07;7.50;;;6.28;;
27925;SDS011;15267;47.838;12.128;2023-02-28T03:00:35;7.95;;;5.82;;
27925;SDS011;15267;47.838;12.128;2023-02-28T03:03:03;7.78;;;6.00;;
27925;SDS011;15267;47.838;12.128;2023-02-28T03:05:31;8.95;;;6.53;;
27925;SDS011;15267;47.838;12.128;2023-02-28T03:07:58;8.80;;;6.57;;
27925;SDS011;15267;47.838;12.128;2023-02-28T03:13:07;9.18;;;6.40;;
27925;SDS011;15267;47.838;12.128;2023-02-28T03:15:58;7.38;;;6.13;;
27925;SDS011;15267;47.838;12.128;2023-02-28T03:18:39;9.02;;;6.68;;
27925;SDS011;15267;47.838;12.128;2023-02-28T03:21:13;8.38;;;6.10;;
27925;SDS011;15267;47.838;12.128;2023-02-28T03:26:22;8.90;;;6.53;;
27925;SDS011;15267;47.838;12.128;2023-02-28T03:28:52;8.38;;;5.85;;
27925;SDS011;15267;47.838;12.128;2023-02-28T03:31:21;7.97;;;6.47;;
27925;SDS011;15267;47.838;12.128;2023-02-28T03:33:50;7.07;;;5.90;;
27925;SDS011;15267;47.838;12.128;2023-02-28T03:36:20;6.82;;;6.13;;
27925;SDS011;15267;47.838;12.128;2023-02-28T03:38:55;10.68;;;7.40;;
27925;SDS011;15267;47.838;12.128;2023-02-28T03:41:22;9.88;;;6.88;;
27925;SDS011;15267;47.838;12.128;2023-02-28T03:44:04;10.43;;;7.80;;
27925;SDS011;15267;47.838;12.128;2023-02-28T03:46:32;9.15;;;7.07;;
27925;SDS011;15267;47.838;12.128;2023-02-28T03:49:05;9.07;;;6.65;;
27925;SDS011;15267;47.838;12.128;2023-02-28T03:51:33;9.68;;;6.90;;
27925;SDS011;15267;47.838;12.128;2023-02-28T03:54:05;9.40;;;6.63;;
27925;SDS011;15267;47.838;12.128;2023-02-28T04:01:50;11.90;;;8.00;;
27925;SDS011;15267;47.838;12.128;2023-02-28T04:04:17;14.13;;;8.10;;
27925;SDS011;15267;47.838;12.128;2023-02-28T04:06:43;9.25;;;7.90;;
27925;SDS011;15267;47.838;12.128;2023-02-28T04:09:11;11.80;;;8.30;;
27925;SDS011;15267;47.838;12.128;2023-02-28T04:11:38;12.65;;;7.80;;
27925;SDS011;15267;47.838;12.128;2023-02-28T04:14:05;12.98;;;8.40;;
27925;SDS011;15267;47.838;12.128;2023-02-28T04:16:31;10.07;;;7.05;;
27925;SDS011;15267;47.838;12.128;2023-02-28T04:18:58;9.65;;;7.50;;
27925;SDS011;15267;47.838;12.128;2023-02-28T04:21:46;12.05;;;7.70;;
27925;SDS011;15267;47.838;12.128;2023-02-28T04:24:14;11.00;;;7.82;;
27925;SDS011;15267;47.838;12.128;2023-02-28T04:26:42;10.07;;;7.88;;
27925;SDS011;15267;47.838;12.128;2023-02-28T04:29:11;12.43;;;8.00;;
27925;SDS011;15267;47.838;12.128;2023-02-28T04:31:38;11.52;;;7.97;;
27925;SDS011;15267;47.838;12.128;2023-02-28T04:34:04;9.95;;;7.13;;
27925;SDS011;15267;47.838;12.128;2023-02-28T04:36:31;11.30;;;9.10;;
27925;SDS011;15267;47.838;12.128;2023-02-28T04:38:57;12.93;;;8.40;;
27925;SDS011;15267;47.838;12.128;2023-02-28T04:41:23;11.75;;;8.40;;
27925;SDS011;15267;47.838;12.128;2023-02-28T04:43:50;14.30;;;8.52;;
27925;SDS011;15267;47.838;12.128;2023-02-28T04:46:17;14.25;;;9.63;;
27925;SDS011;15267;47.838;12.128;2023-02-28T04:48:43;15.00;;;8.93;;
27925;SDS011;15267;47.838;12.128;2023-02-28T04:51:12;15.77;;;8.25;;
27925;SDS011;15267;47.838;12.128;2023-02-28T04:53:39;11.60;;;7.90;;
27925;SDS011;15267;47.838;12.128;2023-02-28T04:56:05;10.18;;;7.43;;
27925;SDS011;15267;47.838;12.128;2023-02-28T04:58:31;11.45;;;7.75;;
27925;SDS011;15267;47.838;12.128;2023-02-28T05:01:05;10.55;;;8.07;;
27925;SDS011;15267;47.838;12.128;2023-02-28T05:03:40;12.18;;;9.38;;
27925;SDS011;15267;47.838;12.128;2023-02-28T05:06:07;11.88;;;7.97;;
27925;SDS011;15267;47.838;12.128;2023-02-28T05:08:33;12.90;;;9.23;;
27925;SDS011;15267;47.838;12.128;2023-02-28T05:10:59;12.07;;;9.07;;
27925;SDS011;15267;47.838;12.128;2023-02-28T05:13:28;14.60;;;9.63;;
27925;SDS011;15267;47.838;12.128;2023-02-28T05:15:54;13.20;;;9.25;;
27925;SDS011;15267;47.838;12.128;2023-02-28T05:18:20;14.55;;;10.40;;
27925;SDS011;15267;47.838;12.128;2023-02-28T05:20:46;15.68;;;10.32;;
27925;SDS011;15267;47.838;12.128;2023-02-28T05:23:13;16.80;;;10.15;;
27925;SDS011;15267;47.838;12.128;2023-02-28T05:25:39;13.73;;;9.95;;
27925;SDS011;15267;47.838;12.128;2023-02-28T05:28:05;14.75;;;10.55;;
27925;SDS011;15267;47.838;12.128;2023-02-28T05:30:31;14.10;;;10.02;;
27925;SDS011;15267;47.838;12.128;2023-02-28T05:32:57;15.75;;;10.75;;
27925;SDS011;15267;47.838;12.128;2023-02-28T05:35:24;17.13;;;10.45;;
27925;SDS011;15267;47.838;12.128;2023-02-28T05:37:50;15.65;;;10.25;;
27925;SDS011;15267;47.838;12.128;2023-02-28T05:40:16;14.82;;;9.98;;
27925;SDS011;15267;47.838;12.128;2023-02-28T05:42:44;16.65;;;11.05;;
27925;SDS011;15267;47.838;12.128;2023-02-28T05:45:10;15.80;;;10.63;;
27925;SDS011;15267;47.838;12.128;2023-02-28T05:47:36;19.38;;;10.32;;
27925;SDS011;15267;47.838;12.128;2023-02-28T05:50:03;17.38;;;11.02;;
27925;SDS011;15267;47.838;12.128;2023-02-28T05:52:29;15.90;;;9.95;;
27925;SDS011;15267;47.838;12.128;2023-02-28T05:54:55;16.38;;;10.80;;
27925;SDS011;15267;47.838;12.128;2023-02-28T05:57:21;30.23;;;15.52;;
27925;SDS011;15267;47.838;12.128;2023-02-28T05:59:48;32.25;;;17.10;;
27925;SDS011;15267;47.838;12.128;2023-02-28T06:02:14;24.30;;;12.73;;
27925;SDS011;15267;47.838;12.128;2023-02-28T06:04:40;20.35;;;11.38;;
27925;SDS011;15267;47.838;12.128;2023-02-28T06:07:07;17.33;;;12.00;;
27925;SDS011;15267;47.838;12.128;2023-02-28T06:09:33;17.83;;;11.75;;
27925;SDS011;15267;47.838;12.128;2023-02-28T06:11:59;17.35;;;12.10;;
27925;SDS011;15267;47.838;12.128;2023-02-28T06:14:25;18.55;;;11.80;;
27925;SDS011;15267;47.838;12.128;2023-02-28T06:16:52;15.75;;;10.55;;
27925;SDS011;15267;47.838;12.128;2023-02-28T06:19:18;14.18;;;10.05;;
27925;SDS011;15267;47.838;12.128;2023-02-28T06:21:44;19.42;;;10.23;;
27925;SDS011;15267;47.838;12.128;2023-02-28T06:24:10;18.70;;;10.10;;
27925;SDS011;15267;47.838;12.128;2023-02-28T06:26:36;15.40;;;9.98;;
27925;SDS011;15267;47.838;12.128;2023-02-28T06:29:02;18.98;;;10.32;;
27925;SDS011;15267;47.838;12.128;2023-02-28T06:31:28;16.73;;;10.00;;
27925;SDS011;15267;47.838;12.128;2023-02-28T06:33:54;15.30;;;10.05;;
27925;SDS011;15267;47.838;12.128;2023-02-28T06:36:21;17.92;;;10.18;;
27925;SDS011;15267;47.838;12.128;2023-02-28T06:38:46;18.35;;;10.60;;
27925;SDS011;15267;47.838;12.128;2023-02-28T06:41:19;18.73;;;10.57;;
27925;SDS011;15267;47.838;12.128;2023-02-28T06:43:45;14.45;;;9.88;;
27925;SDS011;15267;47.838;12.128;2023-02-28T06:46:12;15.93;;;10.20;;
27925;SDS011;15267;47.838;12.128;2023-02-28T06:48:39;16.20;;;10.43;;
27925;SDS011;15267;47.838;12.128;2023-02-28T06:51:06;15.00;;;9.88;;
27925;SDS011;15267;47.838;12.128;2023-02-28T06:53:32;16.55;;;10.48;;
27925;SDS011;15267;47.838;12.128;2023-02-28T06:55:58;14.80;;;10.15;;
27925;SDS011;15267;47.838;12.128;2023-02-28T06:58:24;17.27;;;9.27;;
27925;SDS011;15267;47.838;12.128;2023-02-28T07:00:52;16.33;;;10.52;;
27925;SDS011;15267;47.838;12.128;2023-02-28T07:03:18;16.67;;;10.23;;
27925;SDS011;15267;47.838;12.128;2023-02-28T07:05:44;17.65;;;10.55;;
27925;SDS011;15267;47.838;12.128;2023-02-28T07:08:10;15.35;;;10.68;;
27925;SDS011;15267;47.838;12.128;2023-02-28T07:10:37;18.45;;;10.27;;
27925;SDS011;15267;47.838;12.128;2023-02-28T07:13:04;14.80;;;10.05;;
27925;SDS011;15267;47.838;12.128;2023-02-28T07:15:30;15.32;;;9.73;;
27925;SDS011;15267;47.838;12.128;2023-02-28T07:17:56;14.15;;;10.20;;
27925;SDS011;15267;47.838;12.128;2023-02-28T07:20:22;16.63;;;10.80;;
27925;SDS011;15267;47.838;12.128;2023-02-28T07:22:49;17.63;;;10.63;;
27925;SDS011;15267;47.838;12.128;2023-02-28T07:25:21;17.15;;;11.15;;
27925;SDS011;15267;47.838;12.128;2023-02-28T07:27:47;15.35;;;10.73;;
27925;SDS011;15267;47.838;12.128;2023-02-28T07:30:13;15.23;;;11.38;;
27925;SDS011;15267;47.838;12.128;2023-02-28T07:32:39;18.73;;;11.75;;
27925;SDS011;15267;47.838;12.128;2023-02-28T07:35:05;17.15;;;12.10;;
27925;SDS011;15267;47.838;12.128;2023-02-28T07:37:31;16.50;;;11.40;;
27925;SDS011;15267;47.838;12.128;2023-02-28T07:40:01;18.98;;;11.13;;
27925;SDS011;15267;47.838;12.128;2023-02-28T07:42:29;18.00;;;11.57;;
27925;SDS011;15267;47.838;12.128;2023-02-28T07:44:55;16.50;;;11.82;;
27925;SDS011;15267;47.838;12.128;2023-02-28T07:47:21;15.70;;;11.07;;
27925;SDS011;15267;47.838;12.128;2023-02-28T07:49:47;14.25;;;10.48;;
27925;SDS011;15267;47.838;12.128;2023-02-28T07:52:13;18.05;;;12.13;;
27925;SDS011;15267;47.838;12.128;2023-02-28T07:54:39;20.27;;;12.55;;
27925;SDS011;15267;47.838;12.128;2023-02-28T07:57:05;25.33;;;12.85;;
27925;SDS011;15267;47.838;12.128;2023-02-28T07:59:31;20.98;;;12.10;;
27925;SDS011;15267;47.838;12.128;2023-02-28T08:01:57;18.77;;;11.73;;
27925;SDS011;15267;47.838;12.128;2023-02-28T08:04:24;17.55;;;11.95;;
27925;SDS011;15267;47.838;12.128;2023-02-28T08:06:50;15.95;;;11.85;;
27925;SDS011;15267;47.838;12.128;2023-02-28T08:09:19;20.45;;;12.38;;
27925;SDS011;15267;47.838;12.128;2023-02-28T08:11:45;21.05;;;12.57;;
27925;SDS011;15267;47.838;12.128;2023-02-28T08:14:11;19.80;;;12.23;;
27925;SDS011;15267;47.838;12.128;2023-02-28T08:16:37;21.60;;;11.75;;
27925;SDS011;15267;47.838;12.128;2023-02-28T08:19:03;19.65;;;12.73;;
27925;SDS011;15267;47.838;12.128;2023-02-28T08:21:29;20.17;;;11.85;;
27925;SDS011;15267;47.838;12.128;2023-02-28T08:23:55;20.13;;;11.25;;
27925;SDS011;15267;47.838;12.128;2023-02-28T08:26:21;18.98;;;11.43;;
27925;SDS011;15267;47.838;12.128;2023-02-28T08:28:48;16.90;;;11.43;;
27925;SDS011;15267;47.838;12.128;2023-02-28T08:31:15;16.75;;;10.93;;
27925;SDS011;15267;47.838;12.128;2023-02-28T08:33:41;13.35;;;11.23;;
27925;SDS011;15267;47.838;12.128;2023-02-28T08:36:09;17.58;;;11.52;;
27925;SDS011;15267;47.838;12.128;2023-02-28T08:38:35;17.38;;;11.80;;
27925;SDS011;15267;47.838;12.128;2023-02-28T08:41:03;13.77;;;11.48;;
27925;SDS011;15267;47.838;12.128;2023-02-28T08:43:32;18.35;;;11.60;;
27925;SDS011;15267;47.838;12.128;2023-02-28T08:46:01;16.67;;;11.93;;
27925;SDS011;15267;47.838;12.128;2023-02-28T08:48:36;14.95;;;11.40;;
27925;SDS011;15267;47.838;12.128;2023-02-28T08:51:06;14.65;;;11.02;;
27925;SDS011;15267;47.838;12.128;2023-02-28T08:56:45;18.17;;;12.35;;
27925;SDS011;15267;47.838;12.128;2023-02-28T08:59:12;15.48;;;10.95;;
27925;SDS011;15267;47.838;12.128;2023-02-28T09:01:38;18.98;;;13.63;;
27925;SDS011;15267;47.838;12.128;2023-02-28T09:04:06;17.20;;;13.15;;
27925;SDS011;15267;47.838;12.128;2023-02-28T09:06:33;20.02;;;11.90;;
27925;SDS011;15267;47.838;12.128;2023-02-28T09:08:59;17.05;;;12.93;;
27925;SDS011;15267;47.838;12.128;2023-02-28T09:11:26;16.30;;;12.85;;
27925;SDS011;15267;47.838;12.128;2023-02-28T09:13:52;19.33;;;12.88;;
27925;SDS011;15267;47.838;12.128;2023-02-28T09:16:20;17.15;;;12.43;;
27925;SDS011;15267;47.838;12.128;2023-02-28T09:18:46;17.42;;;13.15;;
27925;SDS011;15267;47.838;12.128;2023-02-28T09:21:13;21.17;;;13.63;;
27925;SDS011;15267;47.838;12.128;2023-02-28T09:23:40;21.13;;;14.10;;
27925;SDS011;15267;47.838;12.128;2023-02-28T09:26:06;17.15;;;13.07;;
27925;SDS011;15267;47.838;12.128;2023-02-28T09:28:32;21.48;;;14.52;;
27925;SDS011;15267;47.838;12.128;2023-02-28T09:30:58;18.73;;;14.10;;
27925;SDS011;15267;47.838;12.128;2023-02-28T09:33:24;19.42;;;14.25;;
27925;SDS011;15267;47.838;12.128;2023-02-28T09:35:52;25.45;;;14.40;;
27925;SDS011;15267;47.838;12.128;2023-02-28T09:38:23;26.70;;;18.92;;
27925;SDS011;15267;47.838;12.128;2023-02-28T09:40:50;20.88;;;17.20;;
27925;SDS011;15267;47.838;12.128;2023-02-28T09:43:16;24.45;;;18.40;;
27925;SDS011;15267;47.838;12.128;2023-02-28T09:45:46;23.92;;;17.10;;
27925;SDS011;15267;47.838;12.128;2023-02-28T09:48:14;22.05;;;18.45;;
27925;SDS011;15267;47.838;12.128;2023-02-28T09:50:43;22.55;;;17.48;;
27925;SDS011;15267;47.838;12.128;2023-02-28T09:53:33;25.50;;;17.58;;
27925;SDS011;15267;47.838;12.128;2023-02-28T09:56:10;28.60;;;21.27;;
27925;SDS011;15267;47.838;12.128;2023-02-28T09:58:39;37.58;;;26.05;;
27925;SDS011;15267;47.838;12.128;2023-02-28T10:01:28;28.40;;;20.70;;
27925;SDS011;15267;47.838;12.128;2023-02-28T10:04:11;27.63;;;22.33;;
27925;SDS011;15267;47.838;12.128;2023-02-28T10:06:47;29.30;;;21.10;;
27925;SDS011;15267;47.838;12.128;2023-02-28T10:09:24;28.42;;;21.10;;
27925;SDS011;15267;47.838;12.128;2023-02-28T10:11:52;24.95;;;20.15;;
27925;SDS011;15267;47.838;12.128;2023-02-28T10:14:19;24.42;;;19.50;;
27925;SDS011;15267;47.838;12.128;2023-02-28T10:16:59;27.58;;;21.88;;
27925;SDS011;15267;47.838;12.128;2023-02-28T10:19:41;27.13;;;20.83;;
27925;SDS011;15267;47.838;12.128;2023-02-28T10:24:54;24.98;;;20.08;;
27925;SDS011;15267;47.838;12.128;2023-02-28T10:27:25;25.83;;;19.08;;
27925;SDS011;15267;47.838;12.128;2023-02-28T10:29:55;23.83;;;19.05;;
27925;SDS011;15267;47.838;12.128;2023-02-28T10:32:22;27.77;;;21.38;;
27925;SDS011;15267;47.838;12.128;2023-02-28T10:34:59;27.90;;;22.00;;
27925;SDS011;15267;47.838;12.128;2023-02-28T10:37:26;25.05;;;19.02;;
27925;SDS011;15267;47.838;12.128;2023-02-28T10:39:52;26.40;;;20.70;;
27925;SDS011;15267;47.838;12.128;2023-02-28T10:42:28;28.10;;;20.63;;
27925;SDS011;15267;47.838;12.128;2023-02-28T10:47:33;25.60;;;20.25;;
27925;SDS011;15267;47.838;12.128;2023-02-28T10:50:01;25.70;;;19.98;;
27925;SDS011;15267;47.838;12.128;2023-02-28T10:52:37;25.20;;;20.90;;
27925;SDS011;15267;47.838;12.128;2023-02-28T10:58:00;28.50;;;20.92;;
27925;SDS011;15267;47.838;12.128;2023-02-28T11:00:26;24.98;;;19.63;;
27925;SDS011;15267;47.838;12.128;2023-02-28T11:02:58;27.98;;;20.65;;
27925;SDS011;15267;47.838;12.128;2023-02-28T11:08:32;25.38;;;18.73;;
27925;SDS011;15267;47.838;12.128;2023-02-28T11:10:39;23.50;;;19.13;;
27925;SDS011;15267;47.838;12.128;2023-02-28T11:13:05;25.75;;;20.55;;
27925;SDS011;15267;47.838;12.128;2023-02-28T11:15:34;30.98;;;21.67;;
27925;SDS011;15267;47.838;12.128;2023-02-28T11:20:28;34.03;;;22.25;;
27925;SDS011;15267;47.838;12.128;2023-02-28T11:22:55;64.25;;;34.75;;
27925;SDS011;15267;47.838;12.128;2023-02-28T11:25:25;26.25;;;19.17;;
27925;SDS011;15267;47.838;12.128;2023-02-28T11:27:56;24.08;;;19.15;;
27925;SDS011;15267;47.838;12.128;2023-02-28T11:32:52;25.67;;;19.70;;
27925;SDS011;15267;47.838;12.128;2023-02-28T11:35:21;29.13;;;19.63;;
27925;SDS011;15267;47.838;12.128;2023-02-28T11:37:49;22.17;;;17.90;;
27925;SDS011;15267;47.838;12.128;2023-02-28T11:40:15;21.98;;;17.83;;
27925;SDS011;15267;47.838;12.128;2023-02-28T11:48:07;24.45;;;19.65;;
27925;SDS011;15267;47.838;12.128;2023-02-28T11:55:44;28.80;;;21.27;;
27925;SDS011;15267;47.838;12.128;2023-02-28T11:58:16;30.50;;;22.67;;
27925;SDS011;15267;47.838;12.128;2023-02-28T12:05:45;25.00;;;19.73;;
27925;SDS011;15267;47.838;12.128;2023-02-28T12:10:51;27.30;;;20.92;;
27925;SDS011;15267;47.838;12.128;2023-02-28T12:13:38;27.42;;;21.35;;
27925;SDS011;15267;47.838;12.128;2023-02-28T12:16:14;26.13;;;20.02;;
27925;SDS011;15267;47.838;12.128;2023-02-28T12:21:20;22.25;;;17.77;;
27925;SDS011;15267;47.838;12.128;2023-02-28T12:23:50;21.13;;;17.30;;
27925;SDS011;15267;47.838;12.128;2023-02-28T12:26:35;22.20;;;17.65;;
27925;SDS011;15267;47.838;12.128;2023-02-28T12:29:26;24.17;;;17.70;;
27925;SDS011;15267;47.838;12.128;2023-02-28T12:31:53;18.95;;;16.40;;
27925;SDS011;15267;47.838;12.128;2023-02-28T12:34:28;24.60;;;19.80;;
27925;SDS011;15267;47.838;12.128;2023-02-28T12:36:56;21.42;;;16.83;;
27925;SDS011;15267;47.838;12.128;2023-02-28T12:39:31;18.35;;;15.90;;
27925;SDS011;15267;47.838;12.128;2023-02-28T12:47:16;21.20;;;16.83;;
27925;SDS011;15267;47.838;12.128;2023-02-28T12:49:53;23.08;;;17.20;;
27925;SDS011;15267;47.838;12.128;2023-02-28T12:52:58;21.60;;;18.52;;
27925;SDS011;15267;47.838;12.128;2023-02-28T12:55:37;22.13;;;18.13;;
27925;SDS011;15267;47.838;12.128;2023-02-28T12:58:10;21.33;;;16.98;;
27925;SDS011;15267;47.838;12.128;2023-02-28T13:00:38;22.20;;;18.83;;
27925;SDS011;15267;47.838;12.128;2023-02-28T13:08:44;22.10;;;17.95;;
27925;SDS011;15267;47.838;12.128;2023-02-28T13:11:24;23.63;;;18.38;;
27925;SDS011;15267;47.838;12.128;2023-02-28T13:13:57;22.52;;;17.20;;
27925;SDS011;15267;47.838;12.128;2023-02-28T13:16:23;23.77;;;17.98;;
27925;SDS011;15267;47.838;12.128;2023-02-28T13:18:49;23.52;;;17.98;;
27925;SDS011;15267;47.838;12.128;2023-02-28T13:21:22;21.25;;;18.45;;
27925;SDS011;15267;47.838;12.128;2023-02-28T13:34:22;20.70;;;18.40;;
27925;SDS011;15267;47.838;12.128;2023-02-28T13:36:48;22.02;;;17.67;;
27925;SDS011;15267;47.838;12.128;2023-02-28T13:42:07;20.45;;;16.77;;
27925;SDS011;15267;47.838;12.128;2023-02-28T13:47:36;23.65;;;17.45;;
27925;SDS011;15267;47.838;12.128;2023-02-28T13:50:15;23.52;;;18.95;;
27925;SDS011;15267;47.838;12.128;2023-02-28T13:53:14;20.20;;;16.33;;
27925;SDS011;15267;47.838;12.128;2023-02-28T13:55:33;19.25;;;16.40;;
27925;SDS011;15267;47.838;12.128;2023-02-28T14:00:52;23.38;;;19.38;;
27925;SDS011;15267;47.838;12.128;2023-02-28T14:03:26;20.83;;;17.70;;
27925;SDS011;15267;47.838;12.128;2023-02-28T14:08:34;22.13;;;18.80;;
27925;SDS011;15267;47.838;12.128;2023-02-28T14:11:05;19.77;;;15.95;;
27925;SDS011;15267;47.838;12.128;2023-02-28T14:13:39;19.58;;;17.15;;
27925;SDS011;15267;47.838;12.128;2023-02-28T14:16:16;22.67;;;17.88;;
27925;SDS011;15267;47.838;12.128;2023-02-28T14:18:48;21.20;;;17.55;;
27925;SDS011;15267;47.838;12.128;2023-02-28T14:31:33;21.52;;;17.55;;
27925;SDS011;15267;47.838;12.128;2023-02-28T14:36:33;19.33;;;16.08;;
27925;SDS011;15267;47.838;12.128;2023-02-28T14:39:05;19.38;;;16.10;;
27925;SDS011;15267;47.838;12.128;2023-02-28T14:41:36;19.85;;;16.98;;
27925;SDS011;15267;47.838;12.128;2023-02-28T14:46:39;18.92;;;15.90;;
27925;SDS011;15267;47.838;12.128;2023-02-28T14:49:06;19.35;;;16.92;;
27925;SDS011;15267;47.838;12.128;2023-02-28T14:51:32;21.30;;;16.08;;
27925;SDS011;15267;47.838;12.128;2023-02-28T14:53:59;17.58;;;15.65;;
27925;SDS011;15267;47.838;12.128;2023-02-28T14:56:27;19.80;;;16.13;;
27925;SDS011;15267;47.838;12.128;2023-02-28T14:58:55;17.40;;;15.48;;
27925;SDS011;15267;47.838;12.128;2023-02-28T15:01:22;18.45;;;15.25;;
27925;SDS011;15267;47.838;12.128;2023-02-28T15:03:56;18.48;;;15.88;;
27925;SDS011;15267;47.838;12.128;2023-02-28T15:09:06;21.30;;;15.57;;
27925;SDS011;15267;47.838;12.128;2023-02-28T15:11:32;20.65;;;16.33;;
27925;SDS011;15267;47.838;12.128;2023-02-28T15:13:58;17.27;;;14.75;;
27925;SDS011;15267;47.838;12.128;2023-02-28T15:16:30;21.10;;;15.60;;
27925;SDS011;15267;47.838;12.128;2023-02-28T15:18:58;19.25;;;15.65;;
27925;SDS011;15267;47.838;12.128;2023-02-28T15:21:28;36.97;;;24.75;;
27925;SDS011;15267;47.838;12.128;2023-02-28T15:24:03;18.88;;;16.05;;
27925;SDS011;15267;47.838;12.128;2023-02-28T15:26:32;17.50;;;15.15;;
27925;SDS011;15267;47.838;12.128;2023-02-28T15:28:59;18.98;;;15.10;;
27925;SDS011;15267;47.838;12.128;2023-02-28T15:31:31;19.65;;;15.15;;
27925;SDS011;15267;47.838;12.128;2023-02-28T15:33:58;18.55;;;15.43;;
27925;SDS011;15267;47.838;12.128;2023-02-28T15:36:32;24.25;;;19.42;;
27925;SDS011;15267;47.838;12.128;2023-02-28T15:39:01;25.33;;;18.48;;
27925;SDS011;15267;47.838;12.128;2023-02-28T15:41:31;23.48;;;18.75;;
27925;SDS011;15267;47.838;12.128;2023-02-28T15:46:54;23.85;;;19.35;;
27925;SDS011;15267;47.838;12.128;2023-02-28T15:49:21;21.30;;;18.42;;
27925;SDS011;15267;47.838;12.128;2023-02-28T15:51:48;19.10;;;16.40;;
27925;SDS011;15267;47.838;12.128;2023-02-28T15:54:16;19.58;;;16.10;;
27925;SDS011;15267;47.838;12.128;2023-02-28T15:56:43;21.27;;;17.63;;
27925;SDS011;15267;47.838;12.128;2023-02-28T15:59:17;26.30;;;23.52;;
27925;SDS011;15267;47.838;12.128;2023-02-28T16:01:43;22.42;;;19.45;;
27925;SDS011;15267;47.838;12.128;2023-02-28T16:04:17;20.83;;;18.05;;
27925;SDS011;15267;47.838;12.128;2023-02-28T16:09:18;21.85;;;17.77;;
27925;SDS011;15267;47.838;12.128;2023-02-28T16:11:48;20.95;;;17.13;;
27925;SDS011;15267;47.838;12.128;2023-02-28T16:14:15;22.45;;;19.27;;
27925;SDS011;15267;47.838;12.128;2023-02-28T16:16:43;19.58;;;16.85;;
27925;SDS011;15267;47.838;12.128;2023-02-28T16:19:10;20.95;;;16.52;;
27925;SDS011;15267;47.838;12.128;2023-02-28T16:21:35;21.98;;;18.63;;
27925;SDS011;15267;47.838;12.128;2023-02-28T16:24:01;25.17;;;19.45;;
27925;SDS011;15267;47.838;12.128;2023-02-28T16:26:27;22.75;;;18.33;;
27925;SDS011;15267;47.838;12.128;2023-02-28T16:28:53;20.38;;;17.77;;
27925;SDS011;15267;47.838;12.128;2023-02-28T16:31:20;21.08;;;18.27;;
27925;SDS011;15267;47.838;12.128;2023-02-28T16:33:46;23.92;;;18.33;;